Terminal Aerodrome Forecast
Issued by NWS

Home | Current Version | Previous Version | Text Only | Print | Product List | Glossary On
Versions: 1 2 3 4 5 6 7 8 9 10 11 12 13 14 15 16 17 18 19 20 21 22 23 24 25
000
FTUS45 KGJT 171850 RRA
TAFCNY
TAF
KCNY 171850Z 1719/1818 VRB03KT P6SM SKC
     FM172300 22007KT P6SM SKC
     FM181400 19008KT P6SM FEW110 FEW250
     FM181600 18012KT P6SM FEW100 FEW250=

USA.gov is the U.S. government's official web portal to all federal, state and local government web resources and services.